Caldwell, West Virginia
Current Conditions -  °F | °C
As of 7:35 AM on Saturday 20 Dec 2014 (Local Time) from KLWB Reporting Station
Overcast Overcast  
Wind Chill: 19°   Ceiling: 9000
Heat Index: 25°   Visibility: 10mi
Dew Point: 22°   Wind: 5mph
Humidity: 87%   Direction: 10°N
Pressure: 30.2"   Gusts: NA
Location:  37.78°N, 80.39°W
Report Text: KLWB 201235Z AUTO 01004KT 10SM SCT080 BKN090 OVC110 M04/M06 A3020 RMK AO2 T10381057
Loading
Personal Weather Stations






























Interactive Weather Map New forecast layout! Learn more

10-Day Weather Forecast

Advertisements
Track Severe Weather on mobile